createdAt,value
2022-10-31T00:01:18.114Z,99898.50
2022-10-31T00:03:46.036Z,99899.44
2022-10-31T00:06:23.521Z,99899.41
2022-10-31T00:08:57.430Z,99906.03
2022-10-31T00:11:28.719Z,99907.44
2022-10-31T00:14:36.105Z,99902.84
2022-10-31T00:17:39.283Z,99908.13
2022-10-31T00:20:11.708Z,99903.09
2022-10-31T00:22:47.761Z,99908.13
2022-10-31T00:25:14.783Z,99906.13
2022-10-31T00:27:43.978Z,99911.91
2022-10-31T00:30:13.500Z,99904.38
2022-10-31T00:32:54.697Z,99911.59
2022-10-31T00:35:47.358Z,99914.91
2022-10-31T00:38:17.713Z,99911.50
2022-10-31T00:40:44.808Z,99916.88
2022-10-31T00:43:23.294Z,99911.19
2022-10-31T00:45:58.510Z,99908.94
2022-10-31T00:48:27.641Z,99910.06
2022-10-31T00:50:54.803Z,99913.03
2022-10-31T00:53:44.645Z,99911.78
2022-10-31T00:56:12.585Z,99911.16
2022-10-31T00:58:49.686Z,99906.91
2022-10-31T01:01:24.669Z,99915.91
2022-10-31T01:04:00.877Z,99915.84
2022-10-31T01:06:28.988Z,99923.53
2022-10-31T01:08:56.158Z,99917.59
2022-10-31T01:11:24.659Z,99914.19
2022-10-31T01:13:54.078Z,99920.56
2022-10-31T01:16:24.035Z,99912.06
2022-10-31T01:18:52.413Z,99916.94
2022-10-31T01:21:29.385Z,99917.47
2022-10-31T01:23:57.928Z,99913.66
2022-10-31T01:26:27.649Z,99917.28
2022-10-31T01:29:00.399Z,99916.34
2022-10-31T01:31:29.928Z,99923.34
2022-10-31T01:33:59.524Z,99914.59
2022-10-31T01:36:36.418Z,99913.97
2022-10-31T01:39:13.561Z,99916.00
2022-10-31T01:41:45.238Z,99913.56
2022-10-31T01:44:17.170Z,99913.03
2022-10-31T01:46:56.518Z,99916.09
2022-10-31T01:49:45.015Z,99911.69
2022-10-31T01:52:24.377Z,99911.69
2022-10-31T01:55:04.329Z,99922.59
2022-10-31T01:58:10.131Z,99921.19
2022-10-31T02:00:37.739Z,99916.78
2022-10-31T02:03:05.829Z,99927.47
2022-10-31T02:05:44.344Z,99915.16
2022-10-31T02:08:31.541Z,99912.97
2022-10-31T02:11:01.295Z,99912.84
2022-10-31T02:13:42.993Z,99907.50
2022-10-31T02:16:10.971Z,99901.84
2022-10-31T02:18:39.182Z,99904.84
2022-10-31T02:21:32.688Z,99917.44
2022-10-31T02:24:40.029Z,99914.94
2022-10-31T02:27:31.470Z,99911.44
2022-10-31T02:30:08.610Z,99923.63
2022-10-31T02:32:44.706Z,99928.25
2022-10-31T02:35:36.465Z,99924.28
2022-10-31T02:38:27.179Z,99926.44
2022-10-31T02:41:25.519Z,99932.25
2022-10-31T02:44:05.558Z,99922.63
2022-10-31T02:46:35.659Z,99930.66
2022-10-31T02:49:28.227Z,99930.31
2022-10-31T02:51:55.383Z,99925.38
2022-10-31T02:54:32.353Z,99932.69
2022-10-31T02:57:05.537Z,99934.00
2022-10-31T02:59:37.446Z,99942.72
2022-10-31T03:03:00.825Z,99947.78
2022-10-31T03:05:36.054Z,99941.81
2022-10-31T03:08:30.698Z,99948.00
2022-10-31T03:11:19.439Z,99956.38
2022-10-31T03:14:37.065Z,99949.03
2022-10-31T03:17:17.714Z,99948.84
2022-10-31T03:19:55.354Z,99947.19
2022-10-31T03:22:30.833Z,99953.91
2022-10-31T03:25:03.966Z,99955.28
2022-10-31T03:27:36.214Z,99945.78
2022-10-31T03:30:11.206Z,99948.44
2022-10-31T03:33:03.038Z,99955.03
2022-10-31T03:35:37.819Z,99963.00
2022-10-31T03:38:34.785Z,99957.66
2022-10-31T03:41:07.150Z,99965.56
2022-10-31T03:43:41.891Z,99966.34
2022-10-31T03:46:10.368Z,99964.97
2022-10-31T03:48:37.387Z,99961.28
2022-10-31T03:51:37.128Z,99968.94
2022-10-31T03:54:10.420Z,99975.00
2022-10-31T03:56:51.945Z,99980.34
2022-10-31T03:59:26.383Z,99988.03
2022-10-31T04:02:03.655Z,99979.84
2022-10-31T04:04:34.598Z,99988.34
2022-10-31T04:07:03.014Z,99983.38
2022-10-31T04:09:36.598Z,99981.31
2022-10-31T04:12:12.985Z,99987.47
2022-10-31T04:14:54.940Z,99986.69
2022-10-31T04:17:25.257Z,99993.47
2022-10-31T04:19:52.504Z,99984.97
2022-10-31T04:22:21.645Z,99991.78
2022-10-31T04:24:48.621Z,99982.34
2022-10-31T04:27:16.638Z,99994.41
2022-10-31T04:29:46.946Z,99994.47
2022-10-31T04:32:20.137Z,99999.06
2022-10-31T04:34:47.275Z,99995.66
2022-10-31T04:37:16.141Z,99991.38
2022-10-31T04:40:02.785Z,99995.09
2022-10-31T04:42:33.363Z,99992.69
2022-10-31T04:45:02.416Z,99992.25
2022-10-31T04:47:33.578Z,99995.09
2022-10-31T04:50:01.099Z,100002.03
2022-10-31T04:52:29.695Z,100002.19
2022-10-31T04:54:56.645Z,99997.72
2022-10-31T04:57:23.790Z,99995.09
2022-10-31T04:59:51.727Z,100005.56
2022-10-31T05:02:18.761Z,99998.72
2022-10-31T05:04:45.816Z,100004.06
2022-10-31T05:07:12.752Z,100008.09
2022-10-31T05:09:42.667Z,100003.19
2022-10-31T05:12:09.664Z,100002.28
2022-10-31T05:14:37.798Z,100003.78
2022-10-31T05:17:05.888Z,100003.53
2022-10-31T05:19:33.020Z,99999.59
2022-10-31T05:22:03.950Z,100004.94
2022-10-31T05:24:30.963Z,100003.06
2022-10-31T05:27:05.879Z,100010.13
2022-10-31T05:29:40.011Z,100005.69
2022-10-31T05:32:08.177Z,100014.50
2022-10-31T05:34:38.296Z,100011.97
2022-10-31T05:37:05.225Z,100014.66
2022-10-31T05:39:34.318Z,100018.31
2022-10-31T05:42:03.768Z,100014.59
2022-10-31T05:44:40.114Z,100015.28
2022-10-31T05:47:14.651Z,100011.81
2022-10-31T05:49:41.626Z,100013.44
2022-10-31T05:52:08.620Z,100017.69
2022-10-31T05:54:45.387Z,100021.28
2022-10-31T05:57:27.094Z,100023.00
2022-10-31T06:00:01.618Z,100026.56
2022-10-31T06:02:35.718Z,100025.16
2022-10-31T06:05:04.263Z,100013.84
2022-10-31T06:07:35.618Z,100017.16
2022-10-31T06:10:06.507Z,100019.84
2022-10-31T06:12:46.414Z,100022.22
2022-10-31T06:15:17.704Z,100025.69
2022-10-31T06:17:47.944Z,100027.63
2022-10-31T06:20:15.879Z,100020.69
2022-10-31T06:22:50.077Z,100030.25
2022-10-31T06:25:29.717Z,100034.22
2022-10-31T06:27:58.786Z,100032.47
2022-10-31T06:30:26.112Z,100044.34
2022-10-31T06:32:54.283Z,100045.47
2022-10-31T06:35:23.256Z,100040.88
2022-10-31T06:37:55.132Z,100040.47
2022-10-31T06:40:22.597Z,100047.25
2022-10-31T06:43:02.867Z,100040.84
2022-10-31T06:45:30.298Z,100049.28
2022-10-31T06:50:49.800Z,100054.09
2022-10-31T06:53:32.843Z,100053.28
2022-10-31T06:56:07.446Z,100058.41
2022-10-31T06:58:47.918Z,100059.56
2022-10-31T07:01:15.188Z,100059.28
2022-10-31T07:03:42.234Z,100063.34
2022-10-31T07:06:11.208Z,100064.63
2022-10-31T07:08:38.238Z,100062.34
2022-10-31T07:11:08.337Z,100065.31
2022-10-31T07:13:36.318Z,100073.09
2022-10-31T07:16:09.102Z,100069.94
2022-10-31T07:18:37.397Z,100077.72
2022-10-31T07:21:04.868Z,100072.34
2022-10-31T07:23:31.905Z,100074.53
2022-10-31T07:26:05.969Z,100085.47
2022-10-31T07:28:39.058Z,100085.84
2022-10-31T07:31:07.003Z,100089.03
2022-10-31T07:33:34.996Z,100085.47
2022-10-31T07:36:05.360Z,100088.72
2022-10-31T07:38:37.371Z,100084.38
2022-10-31T07:41:11.499Z,100083.72
2022-10-31T07:43:38.702Z,100083.44
2022-10-31T07:46:12.704Z,100079.97
2022-10-31T07:48:40.687Z,100090.97
2022-10-31T07:51:38.313Z,100094.66
2022-10-31T07:54:10.779Z,100091.53
2022-10-31T07:56:37.717Z,100097.25
2022-10-31T07:59:05.782Z,100099.38
2022-10-31T08:01:33.830Z,100098.72
2022-10-31T08:04:06.970Z,100099.78
2022-10-31T08:06:38.139Z,100095.75
2022-10-31T08:09:06.310Z,100090.78
2022-10-31T08:11:58.454Z,100095.44
2022-10-31T08:14:28.966Z,100094.63
2022-10-31T08:16:56.220Z,100092.09
2022-10-31T08:19:34.973Z,100096.16
2022-10-31T08:22:02.161Z,100093.25
2022-10-31T08:24:31.351Z,100092.59
2022-10-31T08:27:01.699Z,100088.84
2022-10-31T08:29:28.643Z,100089.75
2022-10-31T08:31:55.637Z,100096.50
2022-10-31T08:34:22.599Z,100090.09
2022-10-31T08:36:50.648Z,100096.78
2022-10-31T08:39:20.619Z,100095.31
2022-10-31T08:41:53.598Z,100092.81
2022-10-31T08:44:27.600Z,100096.25
2022-10-31T08:46:55.638Z,100086.44
2022-10-31T08:49:22.649Z,100095.03
2022-10-31T08:51:50.783Z,100086.06
2022-10-31T08:54:17.830Z,100083.06
2022-10-31T08:56:46.997Z,100078.47
2022-10-31T08:59:14.044Z,100079.72
2022-10-31T09:01:43.186Z,100087.31
2022-10-31T09:04:11.422Z,100088.66
2022-10-31T09:07:20.172Z,100086.59
2022-10-31T09:09:48.033Z,100082.09
2022-10-31T09:12:14.995Z,100085.31
2022-10-31T09:14:51.078Z,100078.91
2022-10-31T09:17:20.148Z,100083.91
2022-10-31T09:19:48.157Z,100084.00
2022-10-31T09:22:29.304Z,100087.41
2022-10-31T09:24:58.384Z,100082.09
2022-10-31T09:30:05.614Z,100083.47
2022-10-31T09:32:44.773Z,100074.00
2022-10-31T09:38:02.373Z,100077.25
2022-10-31T09:40:42.000Z,100074.16
2022-10-31T09:43:47.444Z,100076.84
2022-10-31T09:46:55.519Z,100078.47
2022-10-31T09:49:45.312Z,100072.50
2022-10-31T09:52:35.519Z,100064.50
2022-10-31T09:55:38.515Z,100073.31
2022-10-31T09:58:27.177Z,100074.97
2022-10-31T10:01:00.636Z,100076.38
2022-10-31T10:03:35.908Z,100080.41
2022-10-31T10:06:24.751Z,100071.66
2022-10-31T10:08:56.562Z,100076.88
2022-10-31T10:12:06.052Z,100070.03
2022-10-31T10:14:40.877Z,100072.28
2022-10-31T10:17:22.941Z,100069.34
2022-10-31T10:20:20.814Z,100071.09
2022-10-31T10:23:10.297Z,100063.06
2022-10-31T10:25:49.498Z,100064.50
2022-10-31T10:28:22.505Z,100052.69
2022-10-31T10:31:01.238Z,100055.13
2022-10-31T10:33:42.305Z,100055.53
2022-10-31T10:36:40.129Z,100059.75
2022-10-31T10:39:14.282Z,100057.25
2022-10-31T10:42:21.289Z,100052.00
2022-10-31T10:45:17.573Z,100054.38
2022-10-31T10:48:05.317Z,100047.63
2022-10-31T10:50:37.416Z,100042.88
2022-10-31T10:54:05.217Z,100043.13
2022-10-31T10:56:54.301Z,100033.34
2022-10-31T10:59:23.668Z,100037.03
2022-10-31T11:02:01.726Z,100038.22
2022-10-31T11:04:35.536Z,100027.19
2022-10-31T11:07:11.387Z,100034.13
2022-10-31T11:09:38.879Z,100026.50
2022-10-31T11:12:37.688Z,100029.56
2022-10-31T11:15:20.828Z,100031.47
2022-10-31T11:17:57.476Z,100029.03
2022-10-31T11:21:03.933Z,100030.41
2022-10-31T11:23:35.125Z,100023.34
2022-10-31T11:26:06.316Z,100034.63
2022-10-31T11:28:38.401Z,100026.69
2022-10-31T11:31:17.207Z,100017.47
2022-10-31T11:34:00.390Z,100012.25
2022-10-31T11:36:33.663Z,100019.47
2022-10-31T11:39:02.825Z,100023.50
2022-10-31T11:41:39.827Z,100016.88
2022-10-31T11:44:27.889Z,100012.81
2022-10-31T11:47:00.121Z,100017.72
2022-10-31T11:49:50.915Z,100009.66
2022-10-31T11:52:33.373Z,100006.34
2022-10-31T11:55:22.316Z,100004.94
2022-10-31T11:57:55.531Z,100017.47
2022-10-31T12:00:39.606Z,100014.94
2022-10-31T12:03:21.849Z,100009.88
2022-10-31T12:05:58.383Z,100007.97
2022-10-31T12:08:32.574Z,100002.97
2022-10-31T12:11:33.222Z,99991.44
2022-10-31T12:14:15.444Z,99999.59
2022-10-31T12:17:10.638Z,100007.31
2022-10-31T12:20:17.609Z,99993.88
2022-10-31T12:23:04.352Z,100001.81
2022-10-31T12:25:55.246Z,100004.31
2022-10-31T12:29:04.040Z,99998.31
2022-10-31T12:31:51.860Z,99991.94
2022-10-31T12:34:44.799Z,99989.72
2022-10-31T12:37:27.107Z,99990.75
2022-10-31T12:40:34.741Z,99994.84
2022-10-31T12:43:37.685Z,99996.53
2022-10-31T12:46:15.389Z,99990.22
2022-10-31T12:49:16.846Z,99988.47
2022-10-31T12:52:24.054Z,99978.56
2022-10-31T12:55:04.645Z,99985.53
2022-10-31T12:57:43.934Z,99977.28
2022-10-31T13:00:18.018Z,99967.72
2022-10-31T13:03:15.897Z,99970.75
2022-10-31T13:05:55.825Z,99971.38
2022-10-31T13:08:41.892Z,99966.53
2022-10-31T13:11:17.023Z,99976.63
2022-10-31T13:14:26.935Z,99971.53
2022-10-31T13:16:56.538Z,99975.63
2022-10-31T13:19:29.071Z,99970.53
2022-10-31T13:22:20.128Z,99971.81
2022-10-31T13:25:09.514Z,99974.34
2022-10-31T13:27:52.267Z,99967.56
2022-10-31T13:30:23.735Z,99963.97
2022-10-31T13:33:15.019Z,99970.69
2022-10-31T13:36:16.270Z,99967.72
2022-10-31T13:39:50.954Z,99958.41
2022-10-31T13:42:38.979Z,99966.28
2022-10-31T13:45:15.526Z,99959.78
2022-10-31T13:47:44.231Z,99952.91
2022-10-31T13:50:34.403Z,99956.56
2022-10-31T13:53:19.379Z,99952.19
2022-10-31T13:56:04.349Z,99952.00
2022-10-31T13:58:33.309Z,99954.56
2022-10-31T14:01:21.557Z,99949.28
2022-10-31T14:04:10.964Z,99941.97
2022-10-31T14:06:59.564Z,99950.84
2022-10-31T14:09:33.456Z,99946.81
2022-10-31T14:12:14.125Z,99940.78
2022-10-31T14:14:51.435Z,99937.38
2022-10-31T14:17:28.149Z,99934.16
2022-10-31T14:20:02.171Z,99935.03
2022-10-31T14:22:37.313Z,99940.91
2022-10-31T14:25:26.791Z,99931.75
2022-10-31T14:27:54.021Z,99936.69
2022-10-31T14:30:25.598Z,99922.22
2022-10-31T14:33:00.143Z,99925.88
2022-10-31T14:35:52.774Z,99929.78
2022-10-31T14:38:57.154Z,99930.91
2022-10-31T14:41:51.335Z,99928.81
2022-10-31T14:44:57.587Z,99929.69
2022-10-31T14:48:05.291Z,99927.28
2022-10-31T14:50:49.814Z,99920.44
2022-10-31T14:53:36.098Z,99920.44
2022-10-31T14:56:11.492Z,99915.31
2022-10-31T14:58:47.290Z,99917.53
2022-10-31T15:01:38.325Z,99917.06
2022-10-31T15:04:33.715Z,99917.91
2022-10-31T15:07:25.117Z,99922.13
2022-10-31T15:10:00.854Z,99919.72
2022-10-31T15:12:39.990Z,99930.22
2022-10-31T15:15:35.384Z,99918.13
2022-10-31T15:18:18.560Z,99922.38
2022-10-31T15:20:54.901Z,99917.59
2022-10-31T15:23:30.188Z,99923.16
2022-10-31T15:26:02.720Z,99917.59
2022-10-31T15:28:34.999Z,99921.25
2022-10-31T15:31:04.348Z,99919.06
2022-10-31T15:33:52.548Z,99914.25
2022-10-31T15:36:27.752Z,99905.34
2022-10-31T15:39:03.934Z,99903.78
2022-10-31T15:41:40.161Z,99899.19
2022-10-31T15:44:37.468Z,99903.78
2022-10-31T15:47:18.540Z,99908.50
2022-10-31T15:49:57.118Z,99911.00
2022-10-31T15:52:55.260Z,99916.00
2022-10-31T15:55:37.216Z,99918.97
2022-10-31T15:58:16.122Z,99916.72
2022-10-31T16:00:57.861Z,99931.69
2022-10-31T16:03:42.229Z,99920.66
2022-10-31T16:06:22.532Z,99920.34
2022-10-31T16:08:53.497Z,99925.84
2022-10-31T16:11:54.346Z,99928.34
2022-10-31T16:14:45.594Z,99920.63
2022-10-31T16:17:45.417Z,99928.22
2022-10-31T16:20:26.566Z,99930.38
2022-10-31T16:22:56.872Z,99936.13
2022-10-31T16:25:41.148Z,99929.25
2022-10-31T16:29:05.587Z,99932.00
2022-10-31T16:31:42.149Z,99927.31
2022-10-31T16:34:26.557Z,99941.19
2022-10-31T16:36:58.056Z,99953.88
2022-10-31T16:39:26.015Z,99949.38
2022-10-31T16:41:58.247Z,99950.34
2022-10-31T16:44:34.768Z,99951.69
2022-10-31T16:47:16.162Z,99941.09
2022-10-31T16:53:33.890Z,99943.03
2022-10-31T16:56:17.758Z,99944.56
2022-10-31T16:58:46.457Z,99946.88
2022-10-31T17:01:23.361Z,99955.56
2022-10-31T17:03:57.554Z,99948.19
2022-10-31T17:06:48.544Z,99946.44
2022-10-31T17:10:32.626Z,99953.03
2022-10-31T17:13:04.297Z,99957.00
2022-10-31T17:15:55.962Z,99952.53
2022-10-31T17:18:39.456Z,99955.41
2022-10-31T17:21:42.759Z,99953.00
2022-10-31T17:24:27.163Z,99957.84
2022-10-31T17:26:56.852Z,99940.81
2022-10-31T17:29:26.920Z,99952.69
2022-10-31T17:31:54.240Z,99950.94
2022-10-31T17:34:21.299Z,99948.16
2022-10-31T17:36:53.622Z,99951.03
2022-10-31T17:39:24.935Z,99952.13
2022-10-31T17:41:57.487Z,99946.22
2022-10-31T17:45:25.437Z,99942.59
2022-10-31T17:48:56.608Z,99940.44
2022-10-31T17:51:57.080Z,99940.34
2022-10-31T17:54:52.259Z,99930.75
2022-10-31T17:57:57.948Z,99928.47
2022-10-31T18:00:36.057Z,99930.31
2022-10-31T18:03:49.238Z,99930.44
2022-10-31T18:06:17.575Z,99936.94
2022-10-31T18:09:05.877Z,99942.09
2022-10-31T18:11:33.598Z,99933.50
2022-10-31T18:14:22.624Z,99934.19
2022-10-31T18:17:09.603Z,99939.91
2022-10-31T18:19:43.761Z,99921.16
2022-10-31T18:22:15.526Z,99927.84
2022-10-31T18:24:42.715Z,99928.44
2022-10-31T18:27:13.977Z,99923.25
2022-10-31T18:29:48.833Z,99930.81
2022-10-31T18:32:51.697Z,99939.72
2022-10-31T18:35:26.860Z,99929.84
2022-10-31T18:38:14.534Z,99928.94
2022-10-31T18:40:41.827Z,99932.09
2022-10-31T18:43:21.827Z,99929.91
2022-10-31T18:45:53.707Z,99925.47
2022-10-31T18:48:36.835Z,99923.50
2022-10-31T18:51:06.512Z,99931.91
2022-10-31T18:53:36.343Z,99927.78
2022-10-31T18:56:11.200Z,99928.31
2022-10-31T18:58:43.303Z,99932.16
2022-10-31T19:01:19.628Z,99928.19
2022-10-31T19:03:54.400Z,99931.66
2022-10-31T19:06:58.408Z,99927.88
2022-10-31T19:09:31.142Z,99924.44
2022-10-31T19:12:18.751Z,99921.72
2022-10-31T19:14:46.967Z,99913.13
2022-10-31T19:17:17.158Z,99916.81
2022-10-31T19:19:54.608Z,99905.69
2022-10-31T19:22:32.024Z,99906.53
2022-10-31T19:25:39.143Z,99903.97
2022-10-31T19:28:37.317Z,99907.16
2022-10-31T19:31:05.463Z,99904.34
2022-10-31T19:34:03.141Z,99904.19
2022-10-31T19:36:36.980Z,99893.91
2022-10-31T19:39:04.421Z,99898.50
2022-10-31T19:41:40.437Z,99894.53
2022-10-31T19:44:21.720Z,99894.88
2022-10-31T19:46:58.427Z,99908.38
2022-10-31T19:49:27.292Z,99898.56
2022-10-31T19:52:37.654Z,99902.38
2022-10-31T19:55:05.526Z,99894.47
2022-10-31T19:58:01.463Z,99899.22
2022-10-31T20:01:04.152Z,99898.97
2022-10-31T20:03:34.058Z,99897.44
2022-10-31T20:06:22.039Z,99898.56
2022-10-31T20:09:03.937Z,99884.59
2022-10-31T20:11:44.373Z,99891.78
2022-10-31T20:14:18.428Z,99887.16
2022-10-31T20:17:10.616Z,99881.78
2022-10-31T20:19:37.863Z,99880.47
2022-10-31T20:22:05.183Z,99877.25
2022-10-31T20:24:33.606Z,99879.91
2022-10-31T20:27:02.613Z,99879.03
2022-10-31T20:29:29.685Z,99880.03
2022-10-31T20:32:02.813Z,99882.84
2022-10-31T20:34:50.699Z,99875.97
2022-10-31T20:37:37.775Z,99882.53
2022-10-31T20:40:11.559Z,99870.63
2022-10-31T20:42:58.337Z,99873.34
2022-10-31T20:45:26.598Z,99884.53
2022-10-31T20:48:03.647Z,99872.53
2022-10-31T20:50:56.302Z,99885.56
2022-10-31T20:53:38.079Z,99875.75
2022-10-31T20:56:16.859Z,99864.00
2022-10-31T20:58:47.452Z,99872.13
2022-10-31T21:01:23.569Z,99867.91
2022-10-31T21:04:10.778Z,99865.94
2022-10-31T21:06:39.525Z,99865.28
2022-10-31T21:09:23.926Z,99860.81
2022-10-31T21:11:52.910Z,99855.38
2022-10-31T21:14:22.307Z,99856.31
2022-10-31T21:16:49.440Z,99859.78
2022-10-31T21:19:16.964Z,99850.03
2022-10-31T21:21:47.582Z,99850.78
2022-10-31T21:24:29.094Z,99850.78
2022-10-31T21:27:20.658Z,99848.25
2022-10-31T21:29:49.649Z,99838.13
2022-10-31T21:32:31.899Z,99833.69
2022-10-31T21:35:07.309Z,99829.44
2022-10-31T21:37:43.376Z,99824.44
2022-10-31T21:40:20.441Z,99837.84
2022-10-31T21:42:57.653Z,99828.19
2022-10-31T21:45:26.758Z,99827.03
2022-10-31T21:48:31.859Z,99831.88
2022-10-31T21:54:39.355Z,99823.94
2022-10-31T22:00:46.892Z,99820.88
2022-10-31T22:03:13.966Z,99823.94
2022-10-31T22:05:44.140Z,99817.13
2022-10-31T22:08:11.285Z,99817.38
2022-10-31T22:11:06.493Z,99819.25
2022-10-31T22:13:52.158Z,99810.25
2022-10-31T22:16:30.231Z,99810.56
2022-10-31T22:19:39.698Z,99807.00
2022-10-31T22:22:13.310Z,99802.97
2022-10-31T22:24:46.340Z,99796.53
2022-10-31T22:27:29.917Z,99790.56
2022-10-31T22:30:08.889Z,99790.03
2022-10-31T22:33:01.052Z,99799.19
2022-10-31T22:36:07.387Z,99792.81
2022-10-31T22:38:44.782Z,99796.22
2022-10-31T22:41:26.213Z,99789.06
2022-10-31T22:44:22.743Z,99788.38
2022-10-31T22:47:01.919Z,99787.44
2022-10-31T22:49:49.255Z,99796.34
2022-10-31T22:52:48.519Z,99799.06
2022-10-31T22:55:17.602Z,99792.00
2022-10-31T22:57:56.404Z,99787.78
2022-10-31T23:00:29.397Z,99798.75
2022-10-31T23:03:29.124Z,99799.53
2022-10-31T23:06:09.873Z,99801.06
2022-10-31T23:08:38.286Z,99792.53
2022-10-31T23:11:34.938Z,99797.00
2022-10-31T23:14:38.029Z,99794.84
2022-10-31T23:17:18.117Z,99790.75
2022-10-31T23:19:52.983Z,99787.25
2022-10-31T23:22:19.973Z,99781.41
2022-10-31T23:25:06.977Z,99780.34
2022-10-31T23:27:43.017Z,99768.16
2022-10-31T23:30:15.946Z,99758.31
2022-10-31T23:32:44.887Z,99751.00
2022-10-31T23:35:38.489Z,99748.44
2022-10-31T23:38:05.539Z,99742.88
2022-10-31T23:40:40.902Z,99742.44
2022-10-31T23:43:14.014Z,99740.31
2022-10-31T23:46:13.187Z,99740.13
2022-10-31T23:48:43.585Z,99743.03
2022-10-31T23:51:56.711Z,99741.47
2022-10-31T23:54:28.200Z,99744.06
2022-10-31T23:57:43.113Z,99734.16
